BCS915 EDDF-EDDP
Flight info
| Callsign | BCS915 |
|---|---|
| Flight time | N/A |
| Altitude | 24000 |
| Route | TOBAK8F/25C TOBAK N858 MAXOT T212 LASTO T956 GOXLI GOXLI1V |
| Aircraft | B77L/H-SDE1E2E3FGHIJ2J3J4J5M1RWXY/LB1D1 |
Departure
| Time | N/A |
|---|---|
| Airport | Frankfurt Main Airport (EDDF) |
Arrival
| Time | 2026-05-04 17:08 |
|---|---|
| Airport | Leipzig/Halle Airport (EDDP) |
| Time | Latitude | Longitude | Altitude | Speed | Heading |
|---|---|---|---|---|---|
| 2026-05-04 17:03 | 51.42400 | 12.47514 | 3136 ft | 184 kts | 263° |
| 2026-05-04 17:04 | 51.42268 | 12.44209 | 2748 ft | 173 kts | 265° |
| 2026-05-04 17:04 | 51.42088 | 12.40589 | 2348 ft | 152 kts | 266° |
| 2026-05-04 17:05 | 51.41955 | 12.37348 | 1930 ft | 135 kts | 265° |
| 2026-05-04 17:05 | 51.41809 | 12.34366 | 1594 ft | 134 kts | 265° |
| 2026-05-04 17:06 | 51.41657 | 12.31391 | 1204 ft | 137 kts | 263° |
| 2026-05-04 17:06 | 51.41577 | 12.29850 | 987 ft | 140 kts | 266° |
| 2026-05-04 17:07 | 51.41455 | 12.26664 | 643 ft | 148 kts | 262° |
| 2026-05-04 17:07 | 51.41400 | 12.25579 | 488 ft | 146 kts | 265° |
| 2026-05-04 17:07 | 51.41308 | 12.23616 | 442 ft | 106 kts | 269° |
| 2026-05-04 17:07 | 51.41267 | 12.22731 | 442 ft | 53 kts | 263° |
| 2026-05-04 17:08 | 51.41236 | 12.22261 | 439 ft | 36 kts | 265° |
| 2026-05-04 17:08 | 51.41137 | 12.21665 | 426 ft | 0 kts | 227° |
| 2026-05-04 17:09 | 51.41092 | 12.21645 | 436 ft | 15 kts | 171° |
| 2026-05-04 17:09 | 51.41050 | 12.21735 | 436 ft | 17 kts | 84° |
| 2026-05-04 17:09 | 51.41060 | 12.21988 | 427 ft | 24 kts | 87° |
| 2026-05-04 17:10 | 51.41086 | 12.22516 | 431 ft | 24 kts | 86° |
| 2026-05-04 17:10 | 51.41123 | 12.23312 | 442 ft | 24 kts | 86° |
| 2026-05-04 17:11 | 51.41134 | 12.23489 | 431 ft | 15 kts | 85° |
| 2026-05-04 17:11 | 51.41135 | 12.23532 | 432 ft | 9 kts | 86° |
| 2026-05-04 17:11 | 51.41115 | 12.23194 | 428 ft | 0 kts | 84° |
| 2026-05-04 17:12 | 51.41116 | 12.23202 | 429 ft | 4 kts | 84° |
| 2026-05-04 17:12 | 51.41070 | 12.23281 | 428 ft | 6 kts | 165° |
| 2026-05-04 17:13 | 51.41043 | 12.23485 | 431 ft | 7 kts | 88° |
| 2026-05-04 17:14 | 51.41046 | 12.23723 | 436 ft | 7 kts | 125° |
| 2026-05-04 17:14 | 51.40996 | 12.23747 | 428 ft | 8 kts | 173° |
| 2026-05-04 17:14 | 51.40932 | 12.23837 | 431 ft | 6 kts | 91° |
| 2026-05-04 17:15 | 51.40932 | 12.23867 | 431 ft | 0 kts | 87° |
| 2026-05-04 17:15 | 51.40933 | 12.23868 | 431 ft | 0 kts | 87° |